Time;durP1;ratioP1;P1;durP2;ratioP2;P2;SDS_P1;SDS_P2;PMS_P1;PMS_P2;Temp;Humidity;BMP_temperature;BMP_pressure;BME280_temperature;BME280_humidity;BME280_pressure;Samples;Min_cycle;Max_cycle;Signal;HPM_P1;HPM_P2
2022/02/18 00:00:26;;;;;;;3.75;1.20;;;;;;;6.27;62.67;98154.70;1742509;80;21122;-51
2022/02/18 00:02:52;;;;;;;3.92;1.50;;;;;;;6.31;62.71;98158.67;1745023;82;21150;-52
2022/02/18 00:05:19;;;;;;;4.62;1.30;;;;;;;6.31;62.73;98157.36;1743096;80;21095;-52
2022/02/18 00:07:46;;;;;;;3.10;1.00;;;;;;;6.30;62.72;98162.23;1743602;80;21530;-51
2022/02/18 00:10:13;;;;;;;3.65;1.30;;;;;;;6.29;62.74;98164.04;1722546;82;21835;-51
2022/02/18 00:12:41;;;;;;;6.00;2.00;;;;;;;6.27;62.75;98171.20;1734840;80;21007;-53
2022/02/18 00:15:09;;;;;;;3.22;1.20;;;;;;;6.25;62.81;98173.63;1721924;82;21082;-53
2022/02/18 00:17:38;;;;;;;3.45;1.05;;;;;;;6.20;62.87;98170.14;1740680;82;21094;-51
2022/02/18 00:20:07;;;;;;;4.62;1.75;;;;;;;6.17;63.10;98169.63;1743064;80;22365;-52
2022/02/18 00:22:35;;;;;;;5.67;1.32;;;;;;;6.11;63.24;98177.58;1745026;82;21112;-52
2022/02/18 00:25:03;;;;;;;4.00;1.42;;;;;;;6.06;63.55;98173.29;1752889;81;21165;-52
2022/02/18 00:27:30;;;;;;;3.77;1.15;;;;;;;6.08;63.65;98181.30;1750658;81;21065;-52
2022/02/18 00:29:57;;;;;;;3.25;1.05;;;;;;;6.16;63.78;98178.45;1752074;80;21059;-52
2022/02/18 00:32:24;;;;;;;3.80;1.00;;;;;;;6.20;63.96;98185.00;1742099;80;21054;-52
2022/02/18 00:34:52;;;;;;;5.28;1.60;;;;;;;6.18;64.18;98188.25;1720568;81;21079;-54
2022/02/18 00:37:19;;;;;;;3.22;1.25;;;;;;;6.17;64.50;98185.30;1735069;81;21074;-54
2022/02/18 00:39:45;;;;;;;4.97;1.72;;;;;;;6.16;64.80;98188.40;1752336;81;21063;-52
2022/02/18 00:42:12;;;;;;;2.90;1.20;;;;;;;6.12;65.16;98190.98;1727227;81;21090;-52
2022/02/18 00:44:42;;;;;;;3.25;1.37;;;;;;;6.09;65.54;98190.78;1663692;84;21121;-53
2022/02/18 00:47:10;;;;;;;4.28;1.52;;;;;;;6.06;65.95;98193.68;1688766;83;21124;-54
2022/02/18 00:49:38;;;;;;;4.10;1.32;;;;;;;6.06;66.27;98196.30;1662266;84;21026;-54
2022/02/18 00:52:06;;;;;;;5.03;1.65;;;;;;;6.12;66.51;98200.94;1704383;82;21101;-53
2022/02/18 00:54:32;;;;;;;4.05;1.52;;;;;;;6.18;66.78;98203.92;1714366;82;21110;-53
2022/02/18 00:57:00;;;;;;;3.20;1.20;;;;;;;6.19;67.06;98202.97;1690726;83;21026;-52
2022/02/18 00:59:27;;;;;;;3.77;1.30;;;;;;;6.20;67.30;98211.11;1696510;84;21150;-52
2022/02/18 01:01:54;;;;;;;3.90;1.27;;;;;;;6.16;67.50;98207.98;1693698;83;21125;-52
2022/02/18 01:04:21;;;;;;;3.72;1.47;;;;;;;6.11;67.79;98207.61;1664643;83;21541;-52
2022/02/18 01:06:50;;;;;;;3.65;1.37;;;;;;;6.07;68.12;98211.00;1685819;83;21053;-52
2022/02/18 01:09:17;;;;;;;4.42;1.57;;;;;;;6.07;68.29;98213.61;1658333;84;21105;-52
2022/02/18 01:11:44;;;;;;;4.87;1.37;;;;;;;6.14;68.30;98213.35;1680221;83;21154;-52
2022/02/18 01:14:11;;;;;;;3.20;1.12;;;;;;;6.20;68.34;98217.64;1687097;83;21058;-52
2022/02/18 01:16:37;;;;;;;3.08;1.17;;;;;;;6.22;68.33;98221.77;1682592;83;21045;-52
2022/02/18 01:19:05;;;;;;;3.25;1.42;;;;;;;6.22;68.45;98226.14;1683219;83;21604;-52
2022/02/18 01:21:32;;;;;;;4.15;1.45;;;;;;;6.19;68.52;98223.86;1714140;82;21007;-52
2022/02/18 01:24:03;;;;;;;4.80;1.57;;;;;;;6.19;68.62;98227.77;1710188;83;21071;-52
2022/02/18 01:26:28;;;;;;;5.37;1.50;;;;;;;6.18;68.69;98231.34;1700360;82;21055;-52
2022/02/18 01:28:56;;;;;;;3.85;1.27;;;;;;;6.13;68.75;98236.50;1738626;82;21009;-53
2022/02/18 01:31:25;;;;;;;5.20;1.77;;;;;;;6.12;68.84;98236.19;1738628;80;21027;-51
2022/02/18 01:33:57;;;;;;;4.28;1.20;;;;;;;6.16;68.91;98250.26;1713658;82;21118;-52
2022/02/18 01:36:25;;;;;;;3.42;1.20;;;;;;;6.18;68.83;98246.52;1741982;80;21137;-51
2022/02/18 01:38:54;;;;;;;3.55;1.60;;;;;;;6.19;68.87;98256.00;1738129;82;21063;-52
2022/02/18 01:41:21;;;;;;;2.95;1.02;;;;;;;6.16;69.02;98262.82;1722932;82;21121;-53
2022/02/18 01:43:53;;;;;;;5.50;2.12;;;;;;;6.12;69.19;98258.88;1734972;80;21091;-55
2022/02/18 01:46:20;;;;;;;4.37;1.40;;;;;;;6.07;69.43;98267.60;1726146;81;21043;-52
2022/02/18 01:48:47;;;;;;;4.60;1.62;;;;;;;6.02;69.62;98271.13;1730904;82;21132;-51
2022/02/18 01:51:17;;;;;;;5.33;2.10;;;;;;;6.01;69.69;98270.81;1736927;80;21581;-51
2022/02/18 01:53:44;;;;;;;3.92;1.50;;;;;;;6.05;69.72;98274.77;1740878;82;21554;-51
2022/02/18 01:56:13;;;;;;;4.75;1.65;;;;;;;6.06;69.71;98279.03;1721603;81;21074;-52
2022/02/18 01:58:40;;;;;;;5.83;1.55;;;;;;;6.02;69.75;98283.72;1726201;82;21091;-55
2022/02/18 02:01:09;;;;;;;5.42;1.70;;;;;;;5.99;69.89;98302.28;1719651;80;21065;-51
2022/02/18 02:03:39;;;;;;;4.65;1.40;;;;;;;5.94;70.04;98292.23;1726460;80;21038;-52
2022/02/18 02:06:07;;;;;;;4.08;1.37;;;;;;;5.90;70.21;98300.50;1732551;80;21050;-52
2022/02/18 02:08:36;;;;;;;5.20;1.50;;;;;;;5.89;70.36;98304.91;1715761;82;21130;-52
2022/02/18 02:11:04;;;;;;;3.70;1.20;;;;;;;5.94;70.16;98320.14;1737220;80;21561;-51
2022/02/18 02:13:38;;;;;;;6.83;1.52;;;;;;;5.97;69.94;98315.97;1727166;82;21123;-50
2022/02/18 02:16:14;;;;;;;3.37;1.37;;;;;;;5.98;69.79;98329.84;1721145;81;21010;-51
2022/02/18 02:18:43;;;;;;;4.03;1.55;;;;;;;5.94;69.88;98338.41;1724792;82;21103;-51
2022/02/18 02:21:12;;;;;;;3.25;1.22;;;;;;;5.91;69.99;98349.14;1739908;80;21079;-52
2022/02/18 02:23:41;;;;;;;3.20;0.90;;;;;;;5.88;70.00;98373.72;1716678;82;21072;-52
2022/02/18 02:26:11;;;;;;;3.02;1.10;;;;;;;5.85;70.00;98349.70;1729850;81;21179;-51
2022/02/18 02:28:38;;;;;;;3.37;1.05;;;;;;;5.88;69.96;98358.55;1748973;81;21066;-50
2022/02/18 02:31:07;;;;;;;2.58;0.80;;;;;;;5.92;69.82;98365.15;1721494;80;21110;-51
2022/02/18 02:33:35;;;;;;;3.30;1.00;;;;;;;5.95;69.45;98380.50;1744724;81;21094;-52
2022/02/18 02:36:02;;;;;;;2.55;1.00;;;;;;;5.90;69.45;98388.78;1747598;80;21094;-52
2022/02/18 02:38:29;;;;;;;2.08;0.85;;;;;;;5.89;69.54;98390.23;1743496;82;21162;-52
2022/02/18 02:40:56;;;;;;;2.37;0.88;;;;;;;5.84;69.61;98404.19;1730830;80;21008;-52
2022/02/18 02:43:23;;;;;;;2.75;1.00;;;;;;;5.83;69.83;98403.34;1737784;81;21031;-51
2022/02/18 02:45:50;;;;;;;2.77;0.80;;;;;;;5.86;69.85;98410.08;1716021;82;21103;-52
2022/02/18 02:48:17;;;;;;;3.70;0.95;;;;;;;5.89;69.71;98423.67;1742203;80;21082;-52
2022/02/18 02:50:58;;;;;;;2.40;0.80;;;;;;;5.90;69.75;98440.14;1727038;80;21810;-51
2022/02/18 02:53:26;;;;;;;2.10;0.62;;;;;;;5.87;69.85;98446.98;1738867;81;21122;-54
2022/02/18 02:55:53;;;;;;;2.58;0.90;;;;;;;5.82;69.93;98456.52;1744465;80;21094;-51
2022/02/18 02:58:20;;;;;;;3.67;1.07;;;;;;;5.78;70.24;98486.45;1719905;82;21066;-52
2022/02/18 03:00:46;;;;;;;3.65;0.85;;;;;;;5.76;69.37;98486.59;1749631;82;22218;-52
2022/02/18 03:03:15;;;;;;;1.98;0.50;;;;;;;5.81;69.02;98485.38;1736718;82;21139;-52
2022/02/18 03:05:44;;;;;;;1.98;0.55;;;;;;;5.77;67.90;98497.39;1742851;82;21094;-53
2022/02/18 03:08:10;;;;;;;1.32;0.50;;;;;;;5.74;67.76;98509.41;1741558;80;21113;-52
2022/02/18 03:10:38;;;;;;;2.05;0.50;;;;;;;5.61;65.86;98520.59;1742426;82;21594;-52
2022/02/18 03:13:07;;;;;;;1.27;0.30;;;;;;;5.55;65.12;98514.15;1745440;81;21035;-52
2022/02/18 03:15:36;;;;;;;1.12;0.45;;;;;;;5.52;65.28;98533.17;1710987;82;21077;-53
2022/02/18 03:18:05;;;;;;;2.05;0.55;;;;;;;5.43;65.56;98541.80;1734691;80;21104;-52
2022/02/18 03:20:33;;;;;;;1.60;0.40;;;;;;;5.30;65.49;98543.38;1738669;82;21082;-52
2022/02/18 03:22:59;;;;;;;1.72;0.40;;;;;;;5.21;66.10;98551.48;1739653;80;21051;-52
2022/02/18 03:25:27;;;;;;;2.75;0.60;;;;;;;5.20;66.07;98547.25;1734672;81;21082;-52
2022/02/18 03:27:55;;;;;;;2.52;0.78;;;;;;;5.18;65.81;98549.99;1739155;82;21869;-52
2022/02/18 03:30:23;;;;;;;2.37;0.72;;;;;;;5.17;66.08;98548.82;1720653;81;21058;-52
2022/02/18 03:32:51;;;;;;;2.27;0.50;;;;;;;5.13;66.15;98560.00;1714592;80;21039;-52
2022/02/18 03:35:20;;;;;;;2.58;0.85;;;;;;;5.07;65.99;98562.31;1692447;83;20992;-52
2022/02/18 03:37:47;;;;;;;3.60;0.80;;;;;;;5.05;66.13;98566.84;1718442;82;21133;-52
2022/02/18 03:40:16;;;;;;;3.58;1.00;;;;;;;5.06;65.97;98573.22;1733176;81;21133;-52
2022/02/18 03:42:43;;;;;;;1.87;0.60;;;;;;;5.05;66.19;98577.27;1733350;80;21589;-52
2022/02/18 03:45:10;;;;;;;3.92;1.10;;;;;;;5.01;66.29;98578.83;1728126;82;21491;-54
2022/02/18 03:47:37;;;;;;;3.70;1.10;;;;;;;4.99;65.83;98587.72;1717561;81;21055;-52
2022/02/18 03:50:05;;;;;;;3.92;1.05;;;;;;;4.96;66.11;98599.70;1739230;81;21333;-51
2022/02/18 03:52:32;;;;;;;1.50;0.60;;;;;;;4.93;66.30;98588.27;1738306;80;21091;-53
2022/02/18 03:55:00;;;;;;;2.45;0.80;;;;;;;4.95;66.20;98605.41;1729211;82;21090;-52
2022/02/18 03:57:26;;;;;;;3.83;0.80;;;;;;;4.95;66.24;98605.41;1735985;80;21067;-53
2022/02/18 03:59:53;;;;;;;2.40;0.88;;;;;;;4.91;66.25;98607.09;1737982;80;21057;-52
2022/02/18 04:02:20;;;;;;;2.58;0.90;;;;;;;4.88;66.24;98603.47;1758842;80;21067;-51
2022/02/18 04:04:46;;;;;;;2.72;0.62;;;;;;;4.82;66.31;98617.38;1702490;82;21205;-51
2022/02/18 04:07:25;;;;;;;2.25;0.65;;;;;;;4.81;66.34;98619.62;1734462;80;21504;-52
2022/02/18 04:09:53;;;;;;;1.87;0.57;;;;;;;4.85;66.26;98628.00;1719014;80;21047;-52
2022/02/18 04:12:22;;;;;;;2.17;0.70;;;;;;;4.85;66.33;98638.42;1724301;80;21684;-51
2022/02/18 04:14:51;;;;;;;2.12;0.75;;;;;;;4.78;66.46;98642.50;1717395;81;21087;-52
2022/02/18 04:17:22;;;;;;;1.65;0.50;;;;;;;4.72;66.71;98643.01;1728465;81;21128;-52
2022/02/18 04:19:50;;;;;;;1.35;0.30;;;;;;;4.69;66.81;98654.98;1711178;80;21044;-53
2022/02/18 04:22:19;;;;;;;2.45;0.70;;;;;;;4.62;66.93;98656.81;1731104;80;21098;-52
2022/02/18 04:24:46;;;;;;;2.05;0.60;;;;;;;4.54;67.10;98666.19;1720051;81;21051;-52
2022/02/18 04:27:12;;;;;;;1.57;0.55;;;;;;;4.45;67.27;98670.39;1735654;80;22313;-52
2022/02/18 04:29:42;;;;;;;3.08;0.80;;;;;;;4.42;67.45;98681.05;1733215;82;21142;-52
2022/02/18 04:32:10;;;;;;;2.85;0.60;;;;;;;4.48;67.36;98689.67;1731841;80;21667;-51
2022/02/18 04:34:37;;;;;;;2.83;0.75;;;;;;;4.49;67.28;98692.64;1725693;81;21118;-52
2022/02/18 04:37:04;;;;;;;2.77;0.88;;;;;;;4.49;67.18;98699.16;1725297;80;21075;-52
2022/02/18 04:39:30;;;;;;;2.92;0.90;;;;;;;4.48;67.18;98707.09;1736763;82;21071;-52
2022/02/18 04:41:56;;;;;;;2.40;0.80;;;;;;;4.45;67.21;98702.94;1749230;80;21096;-51
2022/02/18 04:44:23;;;;;;;2.50;0.90;;;;;;;4.40;67.14;98705.91;1750520;81;21051;-51
2022/02/18 04:46:49;;;;;;;2.20;0.88;;;;;;;4.38;67.20;98709.61;1741526;80;21624;-51
2022/02/18 04:49:15;;;;;;;2.55;0.80;;;;;;;4.30;67.27;98710.22;1738557;80;21592;-52
2022/02/18 04:51:44;;;;;;;2.98;0.65;;;;;;;4.23;67.36;98716.39;1735770;81;21553;-52
2022/02/18 04:54:10;;;;;;;2.50;0.95;;;;;;;4.18;67.48;98713.34;1754858;81;21120;-52
2022/02/18 04:56:37;;;;;;;1.85;0.60;;;;;;;4.19;67.43;98719.39;1745171;80;21059;-52
2022/02/18 04:59:04;;;;;;;2.65;0.78;;;;;;;4.17;67.68;98741.64;1733802;82;21122;-51
2022/02/18 05:01:30;;;;;;;2.27;0.72;;;;;;;4.16;67.74;98745.66;1722637;81;21106;-52
2022/02/18 05:03:56;;;;;;;2.22;0.50;;;;;;;4.09;67.91;98746.62;1719014;81;21118;-53
2022/02/18 05:06:23;;;;;;;2.75;0.40;;;;;;;4.04;68.11;98757.39;1734848;80;21124;-50
2022/02/18 05:08:49;;;;;;;2.00;0.57;;;;;;;3.99;68.27;98767.83;1731964;80;21090;-53
2022/02/18 05:11:16;;;;;;;3.20;0.93;;;;;;;3.93;68.43;98774.31;1740316;82;21503;-53
2022/02/18 05:13:44;;;;;;;2.52;0.78;;;;;;;3.87;68.64;98780.84;1738115;81;22262;-54
2022/02/18 05:16:11;;;;;;;3.50;0.75;;;;;;;3.82;68.81;98789.48;1726473;82;21599;-53
2022/02/18 05:18:38;;;;;;;3.40;1.10;;;;;;;3.80;68.99;98798.33;1716483;82;21940;-52
2022/02/18 05:21:04;;;;;;;2.90;0.80;;;;;;;3.85;68.98;98804.01;1734425;82;21622;-54
2022/02/18 05:23:32;;;;;;;2.75;1.10;;;;;;;3.88;68.96;98800.72;1727390;81;21062;-52
2022/02/18 05:25:59;;;;;;;3.20;1.05;;;;;;;3.94;69.02;98816.80;1741880;81;21102;-51
2022/02/18 05:28:25;;;;;;;3.50;1.00;;;;;;;3.94;69.06;98818.11;1748430;81;21030;-53
2022/02/18 05:30:52;;;;;;;2.52;0.72;;;;;;;3.91;69.16;98822.58;1751076;81;21063;-51
2022/02/18 05:33:19;;;;;;;2.27;0.70;;;;;;;3.89;69.18;98824.96;1741917;80;21537;-51
2022/02/18 05:35:46;;;;;;;2.47;0.88;;;;;;;3.86;69.15;98828.61;1753388;81;21601;-51
2022/02/18 05:38:12;;;;;;;3.37;1.17;;;;;;;3.84;69.13;98837.02;1728346;81;21484;-49
2022/02/18 05:40:39;;;;;;;2.77;0.90;;;;;;;3.80;69.14;98845.17;1737028;80;21055;-63
2022/02/18 05:43:06;;;;;;;3.75;0.85;;;;;;;3.83;69.14;98852.74;1745876;80;21146;-56
2022/02/18 05:45:32;;;;;;;1.65;0.60;;;;;;;3.91;68.89;98862.91;1720642;80;21079;-57
2022/02/18 05:47:59;;;;;;;3.83;1.20;;;;;;;4.00;68.71;98862.70;1719456;80;21075;-57
2022/02/18 05:50:26;;;;;;;3.02;0.85;;;;;;;4.09;68.54;98873.69;1740872;80;21149;-58
2022/02/18 05:52:52;;;;;;;2.98;0.88;;;;;;;4.15;68.36;98874.16;1727167;81;22212;-52
2022/02/18 05:55:18;;;;;;;2.33;1.02;;;;;;;4.18;68.21;98877.83;1746405;80;21569;-51
2022/02/18 05:57:46;;;;;;;5.00;1.40;;;;;;;4.21;68.01;98886.72;1746337;81;21007;-54
2022/02/18 06:00:14;;;;;;;4.67;1.22;;;;;;;4.20;67.92;98896.31;1747683;80;21066;-50
2022/02/18 06:02:43;;;;;;;3.35;0.93;;;;;;;4.17;67.71;98896.54;1741701;80;21393;-50
2022/02/18 06:05:10;;;;;;;2.12;0.70;;;;;;;4.13;67.74;98897.70;1747438;81;21122;-52
2022/02/18 06:07:46;;;;;;;3.40;1.10;;;;;;;4.12;67.81;98911.69;1746970;80;21051;-50
2022/02/18 06:10:14;;;;;;;2.30;0.88;;;;;;;4.15;67.86;98915.33;1748561;80;21133;-51
2022/02/18 06:12:40;;;;;;;2.70;1.05;;;;;;;4.24;67.72;98915.94;1741865;80;20995;-51
2022/02/18 06:15:08;;;;;;;2.85;0.98;;;;;;;4.34;67.57;98913.45;1740454;80;21058;-50
2022/02/18 06:17:39;;;;;;;3.12;0.95;;;;;;;4.43;67.40;98918.42;1735231;80;21121;-50
2022/02/18 06:20:09;;;;;;;3.47;1.32;;;;;;;4.48;67.17;98922.80;1738748;80;21142;-50
2022/02/18 06:22:36;;;;;;;6.58;0.90;;;;;;;4.48;66.92;98925.39;1742908;80;21536;-50
2022/02/18 06:25:06;;;;;;;1.98;0.57;;;;;;;4.45;66.86;98932.14;1747268;80;21094;-53
2022/02/18 06:27:33;;;;;;;3.27;1.00;;;;;;;4.40;66.96;98932.49;1752699;80;21027;-55
2022/02/18 06:30:00;;;;;;;4.42;1.05;;;;;;;4.37;67.04;98941.02;1738825;81;21537;-53
2022/02/18 06:32:30;;;;;;;3.12;0.88;;;;;;;4.29;67.08;98935.13;1680858;84;21276;-51
2022/02/18 06:34:56;;;;;;;3.08;0.78;;;;;;;4.24;67.20;98935.47;1689495;84;21187;-50
2022/02/18 06:37:23;;;;;;;2.65;1.00;;;;;;;4.25;67.33;98946.70;1683141;83;21075;-50
2022/02/18 06:39:49;;;;;;;3.98;1.10;;;;;;;4.32;67.30;98946.61;1687202;83;21069;-50
2022/02/18 06:42:16;;;;;;;2.80;0.80;;;;;;;4.40;67.04;98948.60;1663590;83;21065;-50
2022/02/18 06:44:42;;;;;;;2.17;0.80;;;;;;;4.42;67.01;98956.66;1707616;83;21096;-52
2022/02/18 06:47:08;;;;;;;2.35;1.00;;;;;;;4.42;66.81;98955.81;1666693;83;21139;-54
2022/02/18 06:49:35;;;;;;;2.92;0.88;;;;;;;4.42;66.92;98963.63;1688980;83;21053;-51
2022/02/18 06:52:02;;;;;;;3.10;0.82;;;;;;;4.45;66.88;98976.42;1662854;83;21114;-51
2022/02/18 06:54:30;;;;;;;3.55;1.05;;;;;;;4.51;66.61;98974.66;1714066;82;21516;-52
2022/02/18 06:57:00;;;;;;;3.22;0.90;;;;;;;4.54;66.19;98982.23;1664775;85;21093;-52
2022/02/18 06:59:27;;;;;;;2.65;0.90;;;;;;;4.54;65.85;98993.96;1661528;83;21391;-54
2022/02/18 07:01:54;;;;;;;1.90;0.70;;;;;;;4.59;65.80;98990.98;1685100;83;21657;-51
2022/02/18 07:04:25;;;;;;;3.70;1.32;;;;;;;4.69;65.04;98997.16;1668802;83;21450;-52
2022/02/18 07:06:51;;;;;;;5.30;1.10;;;;;;;4.83;64.62;98998.20;1672379;84;21567;-51
2022/02/18 07:09:19;;;;;;;3.65;1.00;;;;;;;4.90;64.45;98991.20;1672680;83;21750;-53
2022/02/18 07:11:46;;;;;;;3.52;1.10;;;;;;;4.97;64.26;99006.23;1670711;83;21083;-52
2022/02/18 07:14:12;;;;;;;3.00;0.60;;;;;;;5.01;63.89;99008.96;1691249;83;21111;-52
2022/02/18 07:16:41;;;;;;;2.17;0.62;;;;;;;5.03;64.15;99013.58;1685154;84;21062;-53
2022/02/18 07:19:11;;;;;;;3.08;1.10;;;;;;;5.05;63.57;99015.24;1693172;83;21125;-54
2022/02/18 07:21:38;;;;;;;2.55;0.82;;;;;;;5.03;63.38;99024.00;1698914;83;21533;-51
2022/02/18 07:24:08;;;;;;;3.62;0.80;;;;;;;5.03;63.44;99023.19;1669979;83;21660;-51
2022/02/18 07:26:34;;;;;;;4.15;1.30;;;;;;;5.14;63.48;99035.36;1690742;83;21067;-52
2022/02/18 07:29:01;;;;;;;3.58;1.30;;;;;;;5.24;62.89;99034.98;1675653;85;21118;-52
2022/02/18 07:31:29;;;;;;;2.35;1.02;;;;;;;5.36;63.17;99037.09;1750854;81;21055;-53
2022/02/18 07:33:56;;;;;;;3.30;0.90;;;;;;;5.46;62.79;99038.00;1727889;80;21064;-52
2022/02/18 07:36:22;;;;;;;2.33;0.57;;;;;;;5.55;62.07;99037.28;1733579;80;21050;-52
2022/02/18 07:38:48;;;;;;;4.15;1.40;;;;;;;5.61;62.06;99035.94;1730329;81;21015;-52
2022/02/18 07:41:15;;;;;;;3.45;1.20;;;;;;;5.69;61.94;99035.33;1734421;81;20997;-52
2022/02/18 07:43:41;;;;;;;3.35;1.27;;;;;;;5.77;61.38;99044.67;1733695;81;21058;-51
2022/02/18 07:46:08;;;;;;;4.28;1.30;;;;;;;5.85;61.32;99038.36;1734566;81;21139;-51
2022/02/18 07:48:35;;;;;;;3.30;0.80;;;;;;;5.97;61.10;99047.45;1736293;82;21530;-52
2022/02/18 07:51:03;;;;;;;4.10;1.30;;;;;;;6.02;60.12;99043.53;1737916;82;21695;-53
2022/02/18 07:53:29;;;;;;;4.53;1.20;;;;;;;6.04;59.71;99056.45;1717339;82;21051;-52
2022/02/18 07:55:56;;;;;;;4.25;1.40;;;;;;;5.99;60.19;99046.38;1734123;82;21067;-53
2022/02/18 07:58:22;;;;;;;4.40;1.10;;;;;;;6.02;60.15;99048.75;1737203;80;21131;-54
2022/02/18 08:00:50;;;;;;;4.72;1.27;;;;;;;6.08;59.74;99046.92;1728627;81;21016;-53
2022/02/18 08:03:17;;;;;;;3.85;1.17;;;;;;;6.11;59.13;99064.95;1733795;82;21537;-54
2022/02/18 08:05:43;;;;;;;4.15;1.10;;;;;;;6.11;59.08;99057.60;1721386;81;21059;-54
2022/02/18 08:08:10;;;;;;;4.22;1.20;;;;;;;6.12;58.91;99060.09;1720074;81;21054;-53
2022/02/18 08:10:37;;;;;;;3.70;1.20;;;;;;;6.12;59.22;99074.45;1717954;82;21078;-52
2022/02/18 08:13:04;;;;;;;4.92;0.95;;;;;;;6.06;58.72;99074.13;1737364;82;21525;-54
2022/02/18 08:15:31;;;;;;;3.92;1.60;;;;;;;5.98;59.14;99069.52;1735513;82;21091;-52
2022/02/18 08:17:57;;;;;;;3.85;1.07;;;;;;;5.96;58.96;99077.97;1737860;80;21079;-54
2022/02/18 08:20:24;;;;;;;5.37;1.12;;;;;;;5.98;58.90;99083.88;1736664;82;21015;-53
2022/02/18 08:22:53;;;;;;;2.35;0.90;;;;;;;6.00;59.07;99078.53;1734252;80;21342;-53
2022/02/18 08:25:19;;;;;;;4.83;1.12;;;;;;;6.01;59.27;99086.25;1731272;82;21094;-53
2022/02/18 08:27:46;;;;;;;4.62;1.55;;;;;;;6.03;59.56;99093.96;1717980;80;21541;-53
2022/02/18 08:30:12;;;;;;;8.13;1.80;;;;;;;6.03;58.87;99092.17;1744329;82;21752;-53
2022/02/18 08:32:41;;;;;;;4.60;1.10;;;;;;;6.04;59.21;99092.53;1748983;80;21207;-53
2022/02/18 08:35:08;;;;;;;5.75;1.20;;;;;;;6.09;59.40;99090.37;1745225;80;21147;-52
2022/02/18 08:37:36;;;;;;;2.83;1.00;;;;;;;6.22;58.77;99096.73;1748068;82;21083;-52
2022/02/18 08:40:05;;;;;;;5.12;1.80;;;;;;;6.27;58.46;99103.70;1744917;80;21012;-53
2022/02/18 08:42:31;;;;;;;5.83;1.07;;;;;;;6.31;58.46;99105.58;1722257;82;21110;-53
2022/02/18 08:44:58;;;;;;;2.87;0.82;;;;;;;6.35;58.33;99104.36;1743662;82;21102;-54
2022/02/18 08:47:25;;;;;;;5.42;1.30;;;;;;;6.38;58.18;99107.21;1709295;82;21198;-54
2022/02/18 08:49:52;;;;;;;3.02;0.95;;;;;;;6.38;58.01;99106.73;1744527;80;21056;-53
2022/02/18 08:52:18;;;;;;;4.22;1.10;;;;;;;6.38;57.81;99128.94;1748215;82;21133;-54
2022/02/18 08:54:45;;;;;;;3.30;1.00;;;;;;;6.36;58.19;99107.34;1723729;82;21145;-53
2022/02/18 08:57:11;;;;;;;3.52;1.12;;;;;;;6.38;57.95;99108.03;1747322;82;21070;-53
2022/02/18 08:59:39;;;;;;;4.10;1.32;;;;;;;6.39;58.08;99125.37;1743480;80;21055;-54
2022/02/18 09:02:05;;;;;;;7.03;1.82;;;;;;;6.43;58.31;99111.09;1744400;82;21097;-54
2022/02/18 09:04:32;;;;;;;4.70;1.30;;;;;;;6.49;58.26;99108.46;1717008;82;21070;-52
2022/02/18 09:06:58;;;;;;;4.30;1.30;;;;;;;6.54;57.73;99114.12;1722149;82;21085;-66
2022/02/18 09:09:25;;;;;;;3.90;1.10;;;;;;;6.56;57.76;99121.84;1745447;82;21577;-63
2022/02/18 09:11:52;;;;;;;4.50;1.32;;;;;;;6.57;57.80;99116.95;1747176;82;21499;-65
2022/02/18 09:14:20;;;;;;;4.40;1.27;;;;;;;6.59;57.61;99123.72;1741594;80;21031;-66
2022/02/18 09:16:50;;;;;;;4.15;1.30;;;;;;;6.60;57.86;99121.93;1742649;82;21098;-66
2022/02/18 09:19:17;;;;;;;4.42;1.57;;;;;;;6.63;58.28;99129.52;1721944;82;21578;-66
2022/02/18 09:21:45;;;;;;;5.65;1.60;;;;;;;6.67;57.79;99128.29;1746771;80;21137;-68
2022/02/18 09:24:11;;;;;;;3.45;1.32;;;;;;;6.74;57.98;99136.45;1720675;82;21093;-64
2022/02/18 09:26:38;;;;;;;5.78;1.57;;;;;;;6.77;57.49;99140.11;1742612;81;21082;-66
2022/02/18 09:29:05;;;;;;;3.15;1.10;;;;;;;6.73;57.32;99147.39;1736150;80;21075;-66
2022/02/18 09:31:32;;;;;;;4.53;1.77;;;;;;;6.67;57.36;99138.74;1717164;82;21104;-62
2022/02/18 09:33:59;;;;;;;3.98;1.45;;;;;;;6.66;57.54;99135.80;1736403;80;21095;-63
2022/02/18 09:36:26;;;;;;;4.62;1.25;;;;;;;6.67;58.28;99144.83;1753146;80;21689;-65
2022/02/18 09:38:52;;;;;;;4.42;1.37;;;;;;;6.74;58.06;99153.44;1734644;80;21000;-64
2022/02/18 09:42:31;;;;;;;4.58;1.55;;;;;;;6.74;57.73;99163.90;1795195;78;22712;-62
2022/02/18 09:44:57;;;;;;;3.35;1.27;;;;;;;6.72;57.76;99163.20;1748471;80;21046;-62
2022/02/18 09:47:23;;;;;;;3.55;1.35;;;;;;;6.73;57.34;99163.08;1733769;81;21205;-62
2022/02/18 09:49:52;;;;;;;3.70;1.00;;;;;;;6.78;56.40;99152.24;1752082;80;21061;-63
2022/02/18 09:52:18;;;;;;;3.02;1.10;;;;;;;6.83;56.99;99167.88;1750721;81;20981;-63
2022/02/18 09:54:46;;;;;;;3.90;1.32;;;;;;;6.84;56.67;99172.63;1731226;81;21000;-63
2022/02/18 09:57:14;;;;;;;6.72;1.75;;;;;;;6.81;56.93;99165.88;1720588;83;21050;-62
2022/02/18 09:59:41;;;;;;;4.25;1.50;;;;;;;6.84;56.93;99162.16;1709529;81;21981;-63
2022/02/18 10:02:07;;;;;;;4.17;1.52;;;;;;;6.86;57.35;99169.42;1709294;83;21108;-62
2022/02/18 10:04:34;;;;;;;4.08;1.20;;;;;;;6.88;56.98;99168.81;1691335;83;21036;-63
2022/02/18 10:07:01;;;;;;;4.22;1.20;;;;;;;6.91;57.08;99173.79;1707166;83;21066;-62
2022/02/18 10:09:43;;;;;;;5.12;1.47;;;;;;;6.93;56.79;99186.25;1703573;82;21035;-63
2022/02/18 10:12:12;;;;;;;3.65;1.42;;;;;;;6.93;56.80;99171.05;1704836;83;21758;-61
2022/02/18 10:14:57;;;;;;;3.98;1.70;;;;;;;6.94;57.02;99181.84;1677364;84;21118;-62
2022/02/18 10:17:37;;;;;;;3.85;1.40;;;;;;;6.98;57.29;99185.87;1677806;83;21130;-62
2022/02/18 10:20:18;;;;;;;3.60;1.05;;;;;;;7.01;56.75;99179.05;1703881;82;21109;-62
2022/02/18 10:23:04;;;;;;;3.72;1.45;;;;;;;7.06;55.59;99182.10;1704098;83;21046;-62
2022/02/18 10:25:33;;;;;;;4.37;1.60;;;;;;;7.04;55.02;99186.19;1718311;83;21136;-61
2022/02/18 10:28:00;;;;;;;7.45;1.45;;;;;;;7.03;55.23;99183.70;1717042;83;21046;-61
2022/02/18 10:30:28;;;;;;;4.37;1.32;;;;;;;7.12;54.90;99191.23;1718422;81;21106;-61
2022/02/18 10:32:58;;;;;;;6.30;1.62;;;;;;;7.24;54.88;99195.41;1714256;82;21543;-62
2022/02/18 10:35:32;;;;;;;3.62;1.25;;;;;;;7.38;53.81;99200.77;1689508;83;21592;-61
2022/02/18 10:37:59;;;;;;;3.47;1.10;;;;;;;7.51;53.16;99192.70;1721340;82;21118;-61
2022/02/18 10:40:26;;;;;;;4.97;1.45;;;;;;;7.59;53.59;99198.93;1714159;82;21832;-62
2022/02/18 10:42:55;;;;;;;3.52;1.17;;;;;;;7.64;53.56;99205.08;1709061;83;21099;-61
2022/02/18 10:45:26;;;;;;;6.10;1.35;;;;;;;7.68;52.35;99212.19;1705358;82;21059;-61
2022/02/18 10:48:12;;;;;;;3.47;1.22;;;;;;;7.66;51.87;99209.70;1707751;83;21385;-61
2022/02/18 10:50:38;;;;;;;3.98;1.07;;;;;;;7.60;52.46;99212.38;1707733;82;21169;-62
2022/02/18 10:53:19;;;;;;;4.58;1.32;;;;;;;7.62;52.77;99210.94;1705331;82;21062;-63
2022/02/18 10:55:57;;;;;;;5.75;1.52;;;;;;;7.67;52.23;99208.75;1686580;84;21094;-63
2022/02/18 10:58:27;;;;;;;3.85;1.27;;;;;;;7.71;52.19;99227.64;1707446;83;21083;-63
2022/02/18 11:01:14;;;;;;;3.05;1.20;;;;;;;7.67;52.43;99224.46;1703108;82;21065;-62
2022/02/18 11:03:46;;;;;;;3.75;0.90;;;;;;;7.73;52.40;99231.80;1704911;83;22460;-62
2022/02/18 11:06:22;;;;;;;4.28;1.22;;;;;;;7.76;52.12;99242.47;1673674;83;21071;-61
2022/02/18 11:08:57;;;;;;;11.10;5.12;;;;;;;7.80;52.20;99228.13;1703120;83;21031;-62
2022/02/18 11:11:37;;;;;;;5.55;1.10;;;;;;;7.85;52.07;99225.97;1705339;83;21062;-63
2022/02/18 11:14:10;;;;;;;4.10;1.02;;;;;;;7.88;51.72;99234.03;1676381;83;21661;-62
2022/02/18 11:16:46;;;;;;;5.03;1.40;;;;;;;7.84;51.94;99247.88;1708560;83;21599;-62
2022/02/18 11:19:13;;;;;;;3.47;1.22;;;;;;;7.77;52.24;99242.83;1749071;80;21492;-62
2022/02/18 11:21:42;;;;;;;3.33;1.55;;;;;;;7.70;52.35;99248.23;1743341;81;21081;-61
2022/02/18 11:24:09;;;;;;;4.40;1.20;;;;;;;7.63;54.76;99257.94;1681701;83;21053;-62
2022/02/18 11:26:35;;;;;;;3.10;1.20;;;;;;;7.52;56.54;99265.88;1705476;82;21721;-62
2022/02/18 11:29:07;;;;;;;3.80;1.42;;;;;;;7.39;58.68;99287.01;1703246;82;21065;-62
2022/02/18 11:31:42;;;;;;;3.92;1.55;;;;;;;7.18;60.35;99291.45;1675504;83;21568;-61
2022/02/18 11:34:39;;;;;;;3.95;1.50;;;;;;;7.01;61.30;99300.67;1687533;83;21129;-62
2022/02/18 11:37:57;;;;;;;3.85;1.50;;;;;;;6.79;63.18;99312.91;1748590;82;21579;-61
2022/02/18 11:40:53;;;;;;;3.08;1.00;;;;;;;6.61;64.51;99312.61;1745188;81;21086;-62
2022/02/18 11:43:36;;;;;;;2.08;0.65;;;;;;;6.47;64.19;99310.27;1706503;82;21159;-62
2022/02/18 11:46:05;;;;;;;3.00;0.62;;;;;;;6.43;64.40;99316.22;1742729;80;20954;-61
2022/02/18 11:48:46;;;;;;;2.05;0.70;;;;;;;6.35;64.21;99329.05;1732420;82;21447;-61